createdAt,value
2019-02-18T00:01:34.619Z,-0.80
2019-02-18T00:04:06.097Z,-0.80
2019-02-18T00:06:38.474Z,-0.80
2019-02-18T00:09:08.771Z,-0.90
2019-02-18T00:11:38.832Z,-0.90
2019-02-18T00:14:12.901Z,-0.90
2019-02-18T00:16:45.545Z,-0.80
2019-02-18T00:19:18.573Z,-0.80
2019-02-18T00:21:51.345Z,-0.80
2019-02-18T00:24:24.367Z,-0.70
2019-02-18T00:26:55.794Z,-0.70
2019-02-18T00:29:25.517Z,-0.70
2019-02-18T00:31:55.701Z,-0.60
2019-02-18T00:34:26.256Z,-0.70
2019-02-18T00:36:58.389Z,-0.70
2019-02-18T00:39:29.873Z,-0.70
2019-02-18T00:42:00.494Z,-0.70
2019-02-18T00:44:32.942Z,-0.60
2019-02-18T00:47:04.502Z,-0.50
2019-02-18T00:49:46.936Z,-0.40
2019-02-18T00:52:23.185Z,-0.40
2019-02-18T00:54:55.788Z,-0.40
2019-02-18T00:57:25.560Z,-0.40
2019-02-18T00:59:56.628Z,-0.30
2019-02-18T01:02:31.592Z,-0.30
2019-02-18T01:05:03.940Z,-0.30
2019-02-18T01:07:36.502Z,-0.20
2019-02-18T01:10:08.281Z,-0.20
2019-02-18T01:12:41.654Z,-0.20
2019-02-18T01:15:12.558Z,-0.10
2019-02-18T01:17:43.328Z,-0.10
2019-02-18T01:20:15.925Z,-0.10
2019-02-18T01:22:48.597Z,-0.10
2019-02-18T01:25:22.508Z,0.00
2019-02-18T01:27:55.943Z,0.00
2019-02-18T01:30:28.553Z,0.00
2019-02-18T01:32:57.757Z,0.10
2019-02-18T01:35:27.116Z,0.00
2019-02-18T01:37:56.405Z,0.00
2019-02-18T01:40:27.844Z,0.00
2019-02-18T01:42:59.108Z,0.10
2019-02-18T01:45:35.862Z,0.00
2019-02-18T01:48:07.353Z,0.10
2019-02-18T01:50:38.314Z,0.10
2019-02-18T01:53:10.597Z,0.10
2019-02-18T01:55:42.713Z,0.10
2019-02-18T01:58:15.305Z,0.10
2019-02-18T02:00:47.920Z,0.20
2019-02-18T02:03:19.721Z,0.20
2019-02-18T02:05:51.319Z,0.20
2019-02-18T02:08:23.284Z,0.30
2019-02-18T02:10:52.985Z,0.30
2019-02-18T02:13:30.922Z,0.40
2019-02-18T02:16:02.453Z,0.40
2019-02-18T02:18:33.388Z,0.50
2019-02-18T02:21:05.289Z,0.50
2019-02-18T02:23:37.129Z,0.50
2019-02-18T02:26:08.873Z,0.50
2019-02-18T02:28:41.400Z,0.60
2019-02-18T02:31:11.525Z,0.60
2019-02-18T02:33:43.855Z,0.60
2019-02-18T02:36:18.127Z,0.70
2019-02-18T02:38:48.592Z,0.70
2019-02-18T02:41:20.781Z,0.80
2019-02-18T02:43:53.602Z,0.80
2019-02-18T02:46:25.711Z,0.80
2019-02-18T02:48:57.178Z,0.90
2019-02-18T02:51:32.940Z,0.90
2019-02-18T02:54:06.541Z,0.80
2019-02-18T02:56:38.003Z,0.80
2019-02-18T02:59:11.317Z,0.90
2019-02-18T03:01:41.677Z,0.90
2019-02-18T03:04:12.919Z,0.90
2019-02-18T03:06:45.129Z,0.90
2019-02-18T03:09:17.447Z,0.90
2019-02-18T03:11:49.011Z,0.90
2019-02-18T03:14:20.618Z,0.90
2019-02-18T03:16:53.962Z,0.90
2019-02-18T03:19:24.645Z,0.90
2019-02-18T03:21:53.721Z,0.90
2019-02-18T03:24:27.050Z,0.90
2019-02-18T03:26:59.559Z,0.90
2019-02-18T03:29:41.608Z,0.90
2019-02-18T03:32:12.835Z,0.90
2019-02-18T03:34:46.155Z,0.90
2019-02-18T03:37:17.084Z,0.90
2019-02-18T03:39:49.220Z,0.90
2019-02-18T03:42:20.981Z,1.00
2019-02-18T03:44:51.151Z,1.00
2019-02-18T03:47:21.804Z,1.00
2019-02-18T03:49:52.197Z,0.90
2019-02-18T03:52:23.178Z,0.90
2019-02-18T03:54:54.803Z,1.00
2019-02-18T03:57:29.387Z,1.00
2019-02-18T04:00:01.057Z,1.00
2019-02-18T04:02:31.166Z,1.00
2019-02-18T04:05:00.651Z,1.00
2019-02-18T04:07:29.365Z,1.00
2019-02-18T04:10:01.994Z,1.00
2019-02-18T04:12:34.006Z,1.00
2019-02-18T04:15:04.951Z,1.00
2019-02-18T04:17:35.831Z,1.00
2019-02-18T04:20:09.542Z,1.10
2019-02-18T04:22:44.044Z,1.10
2019-02-18T04:25:16.076Z,1.10
2019-02-18T04:27:47.133Z,1.10
2019-02-18T04:30:19.677Z,1.10
2019-02-18T04:32:51.571Z,1.10
2019-02-18T04:35:23.027Z,1.10
2019-02-18T04:37:56.334Z,1.10
2019-02-18T04:40:27.189Z,1.10
2019-02-18T04:42:58.228Z,1.20
2019-02-18T04:45:30.043Z,1.20
2019-02-18T04:48:02.060Z,1.30
2019-02-18T04:50:33.859Z,1.20
2019-02-18T04:53:05.934Z,1.20
2019-02-18T04:55:38.262Z,1.30
2019-02-18T04:58:09.938Z,1.30
2019-02-18T05:00:40.854Z,1.30
2019-02-18T05:03:13.576Z,1.30
2019-02-18T05:05:45.132Z,1.30
2019-02-18T05:08:18.474Z,1.40
2019-02-18T05:10:49.993Z,1.40
2019-02-18T05:13:22.916Z,1.40
2019-02-18T05:15:55.689Z,1.40
2019-02-18T05:18:25.778Z,1.50
2019-02-18T05:20:57.513Z,1.50
2019-02-18T05:23:27.157Z,1.50
2019-02-18T05:26:00.169Z,1.50
2019-02-18T05:28:32.049Z,1.50
2019-02-18T05:31:03.103Z,1.50
2019-02-18T05:33:36.669Z,1.50
2019-02-18T05:36:07.667Z,1.50
2019-02-18T05:38:40.148Z,1.60
2019-02-18T05:41:11.693Z,1.50
2019-02-18T05:43:43.109Z,1.50
2019-02-18T05:46:16.663Z,1.50
2019-02-18T05:48:50.142Z,1.60
2019-02-18T05:51:23.943Z,1.60
2019-02-18T05:53:55.441Z,1.60
2019-02-18T05:56:27.923Z,1.60
2019-02-18T05:59:00.115Z,1.60
2019-02-18T06:01:31.643Z,1.60
2019-02-18T06:04:03.796Z,1.60
2019-02-18T06:06:35.699Z,1.70
2019-02-18T06:09:05.941Z,1.70
2019-02-18T06:11:36.625Z,1.70
2019-02-18T06:14:07.525Z,1.80
2019-02-18T06:16:43.737Z,1.80
2019-02-18T06:19:17.770Z,1.80
2019-02-18T06:21:48.001Z,1.80
2019-02-18T06:24:19.025Z,1.80
2019-02-18T06:26:51.733Z,1.80
2019-02-18T06:29:21.893Z,1.80
2019-02-18T06:31:50.975Z,1.80
2019-02-18T06:34:21.819Z,1.80
2019-02-18T06:36:54.870Z,1.90
2019-02-18T06:39:27.431Z,1.90
2019-02-18T06:41:58.599Z,2.00
2019-02-18T06:44:38.497Z,2.00
2019-02-18T06:47:14.130Z,2.00
2019-02-18T06:49:46.600Z,2.10
2019-02-18T06:52:16.752Z,2.10
2019-02-18T06:54:46.008Z,2.20
2019-02-18T06:57:37.705Z,2.20
2019-02-18T07:00:26.054Z,2.20
2019-02-18T07:03:15.367Z,2.20
2019-02-18T07:06:07.769Z,2.30
2019-02-18T07:08:49.579Z,2.30
2019-02-18T07:11:28.782Z,2.40
2019-02-18T07:13:59.713Z,2.30
2019-02-18T07:16:33.590Z,2.30
2019-02-18T07:19:05.632Z,2.40
2019-02-18T07:21:37.553Z,2.30
2019-02-18T07:24:08.524Z,2.40
2019-02-18T07:26:39.319Z,2.40
2019-02-18T07:29:11.684Z,2.40
2019-02-18T07:31:43.965Z,2.40
2019-02-18T07:34:15.624Z,2.40
2019-02-18T07:36:47.399Z,2.50
2019-02-18T07:39:18.741Z,2.50
2019-02-18T07:41:50.185Z,2.50
2019-02-18T07:44:22.644Z,2.60
2019-02-18T07:46:54.728Z,2.60
2019-02-18T07:49:26.030Z,2.60
2019-02-18T07:51:57.972Z,2.70
2019-02-18T07:54:30.115Z,2.60
2019-02-18T07:57:01.490Z,2.70
2019-02-18T07:59:32.879Z,2.70
2019-02-18T08:02:04.736Z,2.70
2019-02-18T08:04:35.007Z,2.70
2019-02-18T08:07:05.524Z,2.80
2019-02-18T08:09:35.512Z,2.80
2019-02-18T08:12:06.684Z,2.90
2019-02-18T08:14:39.266Z,2.90
2019-02-18T08:17:10.552Z,3.00
2019-02-18T08:19:43.978Z,3.00
2019-02-18T08:22:13.804Z,3.10
2019-02-18T08:24:43.336Z,3.10
2019-02-18T08:27:14.302Z,3.10
2019-02-18T08:29:46.813Z,3.10
2019-02-18T08:32:16.527Z,3.10
2019-02-18T08:34:46.513Z,3.20
2019-02-18T08:37:15.640Z,3.20
2019-02-18T08:39:45.848Z,3.30
2019-02-18T08:42:15.464Z,3.30
2019-02-18T08:44:46.869Z,3.40
2019-02-18T08:47:17.257Z,3.40
2019-02-18T08:49:49.161Z,3.50
2019-02-18T08:52:19.827Z,3.50
2019-02-18T08:54:56.265Z,3.50
2019-02-18T08:57:22.201Z,3.50
2019-02-18T08:59:54.859Z,3.50
2019-02-18T09:02:25.271Z,3.50
2019-02-18T09:04:56.618Z,3.50
2019-02-18T09:07:27.598Z,3.50
2019-02-18T09:09:59.134Z,3.50
2019-02-18T09:12:29.817Z,3.50
2019-02-18T09:15:00.329Z,3.50
2019-02-18T09:17:30.596Z,3.60
2019-02-18T09:20:00.388Z,3.60
2019-02-18T09:22:50.198Z,3.60
2019-02-18T09:25:22.660Z,3.70
2019-02-18T09:27:52.339Z,3.60
2019-02-18T09:30:27.922Z,3.70
2019-02-18T09:32:58.401Z,3.70
2019-02-18T09:35:29.422Z,3.70
2019-02-18T09:37:59.591Z,3.70
2019-02-18T09:40:30.489Z,3.80
2019-02-18T09:43:01.282Z,3.80
2019-02-18T09:45:33.717Z,3.80
2019-02-18T09:48:04.639Z,3.80
2019-02-18T09:50:37.242Z,3.90
2019-02-18T09:53:11.757Z,3.90
2019-02-18T09:55:45.329Z,3.90
2019-02-18T09:58:17.006Z,3.90
2019-02-18T10:00:51.849Z,3.90
2019-02-18T10:03:31.080Z,3.90
2019-02-18T10:05:53.361Z,3.90
2019-02-18T10:08:23.440Z,3.90
2019-02-18T10:10:56.391Z,3.90
2019-02-18T10:13:28.422Z,3.90
2019-02-18T10:15:59.260Z,3.90
2019-02-18T10:18:31.177Z,3.90
2019-02-18T10:21:06.092Z,3.90
2019-02-18T10:23:38.993Z,3.90
2019-02-18T10:26:10.406Z,3.90
2019-02-18T10:28:41.617Z,3.90
2019-02-18T10:31:13.623Z,3.80
2019-02-18T10:33:45.109Z,3.80
2019-02-18T10:36:18.129Z,3.80
2019-02-18T10:38:48.370Z,3.80
2019-02-18T10:41:19.409Z,3.80
2019-02-18T10:43:51.442Z,3.80
2019-02-18T10:46:21.969Z,3.80
2019-02-18T10:48:53.409Z,3.80
2019-02-18T10:51:24.988Z,3.80
2019-02-18T10:53:54.634Z,3.80
2019-02-18T10:56:24.233Z,3.90
2019-02-18T10:58:54.458Z,3.80
2019-02-18T11:01:25.044Z,3.80
2019-02-18T11:03:55.306Z,3.90
2019-02-18T11:06:45.810Z,3.80
2019-02-18T11:09:17.403Z,3.80
2019-02-18T11:11:49.829Z,3.90
2019-02-18T11:14:21.377Z,3.90
2019-02-18T11:16:55.887Z,3.90
2019-02-18T11:19:27.485Z,3.90
2019-02-18T11:22:00.286Z,3.90
2019-02-18T11:24:33.044Z,3.90
2019-02-18T11:27:03.849Z,3.90
2019-02-18T11:29:38.360Z,3.90
2019-02-18T11:32:09.045Z,4.00
2019-02-18T11:34:39.704Z,4.00
2019-02-18T11:37:10.177Z,4.00
2019-02-18T11:39:41.172Z,4.00
2019-02-18T11:42:14.505Z,4.00
2019-02-18T11:44:46.616Z,4.00
2019-02-18T11:47:18.679Z,4.10
2019-02-18T11:49:50.482Z,4.10
2019-02-18T11:52:20.531Z,4.10
2019-02-18T11:54:51.413Z,4.10
2019-02-18T11:57:22.317Z,4.10
2019-02-18T11:59:57.119Z,4.20
2019-02-18T12:02:27.290Z,4.20
2019-02-18T12:05:01.274Z,4.20
2019-02-18T12:07:32.161Z,4.30
2019-02-18T12:10:02.881Z,4.30
2019-02-18T12:12:34.057Z,4.30
2019-02-18T12:15:05.345Z,4.40
2019-02-18T12:17:39.249Z,4.40
2019-02-18T12:20:10.924Z,4.40
2019-02-18T12:22:42.390Z,4.40
2019-02-18T12:25:12.738Z,4.50
2019-02-18T12:27:43.118Z,4.50
2019-02-18T12:30:12.198Z,4.50
2019-02-18T12:32:42.299Z,4.50
2019-02-18T12:35:13.785Z,4.50
2019-02-18T12:37:54.998Z,4.40
2019-02-18T12:40:20.137Z,4.40
2019-02-18T12:42:52.457Z,4.40
2019-02-18T12:45:23.371Z,4.40
2019-02-18T12:47:54.725Z,4.40
2019-02-18T12:50:28.692Z,4.40
2019-02-18T12:52:59.600Z,4.40
2019-02-18T12:55:33.528Z,4.40
2019-02-18T12:58:03.238Z,4.40
2019-02-18T13:00:32.845Z,4.40
2019-02-18T13:03:02.894Z,4.40
2019-02-18T13:05:32.035Z,4.40
2019-02-18T13:08:06.414Z,4.40
2019-02-18T13:10:37.993Z,4.40
2019-02-18T13:13:11.503Z,4.40
2019-02-18T13:15:44.937Z,4.30
2019-02-18T13:18:16.986Z,4.30
2019-02-18T13:20:47.061Z,4.30
2019-02-18T13:23:17.414Z,4.30
2019-02-18T13:25:47.618Z,4.30
2019-02-18T13:28:17.959Z,4.30
2019-02-18T13:30:49.401Z,4.30
2019-02-18T13:33:23.262Z,4.30
2019-02-18T13:35:55.476Z,4.30
2019-02-18T13:38:25.260Z,4.30
2019-02-18T13:40:54.897Z,4.30
2019-02-18T13:43:24.585Z,4.30
2019-02-18T13:45:56.619Z,4.30
2019-02-18T13:48:27.593Z,4.30
2019-02-18T13:50:58.967Z,4.20
2019-02-18T13:53:29.045Z,4.30
2019-02-18T13:55:58.208Z,4.30
2019-02-18T13:58:29.971Z,4.30
2019-02-18T14:01:02.318Z,4.30
2019-02-18T14:03:32.961Z,4.20
2019-02-18T14:06:04.048Z,4.30
2019-02-18T14:08:35.954Z,4.30
2019-02-18T14:11:07.337Z,4.30
2019-02-18T14:13:38.974Z,4.30
2019-02-18T14:16:10.736Z,4.30
2019-02-18T14:18:42.074Z,4.30
2019-02-18T14:21:13.140Z,4.30
2019-02-18T14:23:43.864Z,4.30
2019-02-18T14:26:14.891Z,4.30
2019-02-18T14:28:47.086Z,4.30
2019-02-18T14:31:18.025Z,4.30
2019-02-18T14:33:50.245Z,4.30
2019-02-18T14:36:21.705Z,4.30
2019-02-18T14:38:53.645Z,4.30
2019-02-18T14:41:24.932Z,4.30
2019-02-18T14:43:57.455Z,4.30
2019-02-18T14:46:29.001Z,4.30
2019-02-18T14:49:11.559Z,4.30
2019-02-18T14:51:44.171Z,4.30
2019-02-18T14:54:16.328Z,4.30
2019-02-18T14:56:51.181Z,4.30
2019-02-18T14:59:23.796Z,4.40
2019-02-18T15:01:54.750Z,4.40
2019-02-18T15:04:25.730Z,4.40
2019-02-18T15:06:58.705Z,4.40
2019-02-18T15:09:29.310Z,4.40
2019-02-18T15:11:59.817Z,4.40
2019-02-18T15:14:32.112Z,4.40
2019-02-18T15:17:03.561Z,4.40
2019-02-18T15:19:35.494Z,4.40
2019-02-18T15:22:07.585Z,4.40
2019-02-18T15:24:40.292Z,4.40
2019-02-18T15:27:12.745Z,4.40
2019-02-18T15:29:47.384Z,4.40
2019-02-18T15:32:20.363Z,4.40
2019-02-18T15:34:53.325Z,4.40
2019-02-18T15:37:24.616Z,4.40
2019-02-18T15:39:57.385Z,4.40
2019-02-18T15:42:29.357Z,4.40
2019-02-18T15:45:02.078Z,4.40
2019-02-18T15:47:33.458Z,4.40
2019-02-18T15:50:07.445Z,4.40
2019-02-18T15:52:41.145Z,4.40
2019-02-18T15:55:13.061Z,4.40
2019-02-18T15:57:42.816Z,4.40
2019-02-18T16:00:17.135Z,4.40
2019-02-18T16:02:49.122Z,4.40
2019-02-18T16:05:18.835Z,4.30
2019-02-18T16:07:50.836Z,4.30
2019-02-18T16:10:20.670Z,4.30
2019-02-18T16:12:51.588Z,4.30
2019-02-18T16:15:23.722Z,4.30
2019-02-18T16:17:55.229Z,4.30
2019-02-18T16:20:28.961Z,4.30
2019-02-18T16:22:59.704Z,4.30
2019-02-18T16:25:29.796Z,4.30
2019-02-18T16:28:00.031Z,4.30
2019-02-18T16:30:29.210Z,4.20
2019-02-18T16:33:00.698Z,4.20
2019-02-18T16:35:31.941Z,4.20
2019-02-18T16:38:02.714Z,4.20
2019-02-18T16:40:35.337Z,4.20
2019-02-18T16:43:05.636Z,4.20
2019-02-18T16:45:40.492Z,4.20
2019-02-18T16:48:12.862Z,4.30
2019-02-18T16:50:43.347Z,4.30
2019-02-18T16:53:15.120Z,4.30
2019-02-18T16:55:46.480Z,4.40
2019-02-18T16:58:18.408Z,4.40
2019-02-18T17:00:57.263Z,4.40
2019-02-18T17:03:22.769Z,4.40
2019-02-18T17:05:56.933Z,4.40
2019-02-18T17:08:28.339Z,4.30
2019-02-18T17:10:59.420Z,4.40
2019-02-18T17:13:30.039Z,4.40
2019-02-18T17:16:00.869Z,4.40
2019-02-18T17:18:32.449Z,4.50
2019-02-18T17:21:23.707Z,4.40
2019-02-18T17:23:55.089Z,4.50
2019-02-18T17:26:26.480Z,4.50
2019-02-18T17:28:58.123Z,4.50
2019-02-18T17:31:29.083Z,4.60
2019-02-18T17:34:00.516Z,4.60
2019-02-18T17:36:33.133Z,4.60
2019-02-18T17:39:05.334Z,4.60
2019-02-18T17:41:37.641Z,4.60
2019-02-18T17:44:10.698Z,4.60
2019-02-18T17:46:43.188Z,4.60
2019-02-18T17:49:12.920Z,4.60
2019-02-18T17:51:41.688Z,4.60
2019-02-18T17:54:12.589Z,4.60
2019-02-18T17:56:42.838Z,4.60
2019-02-18T17:59:12.524Z,4.60
2019-02-18T18:01:41.912Z,4.60
2019-02-18T18:04:11.124Z,4.60
2019-02-18T18:06:41.013Z,4.60
2019-02-18T18:09:15.660Z,4.60
2019-02-18T18:11:48.588Z,4.60
2019-02-18T18:14:21.068Z,4.60
2019-02-18T18:16:51.797Z,4.50
2019-02-18T18:19:24.853Z,4.50
2019-02-18T18:21:56.307Z,4.50
2019-02-18T18:24:27.221Z,4.50
2019-02-18T18:26:58.816Z,4.50
2019-02-18T18:29:28.177Z,4.50
2019-02-18T18:31:59.545Z,4.40
2019-02-18T18:34:30.710Z,4.50
2019-02-18T18:37:02.027Z,4.50
2019-02-18T18:39:33.925Z,4.40
2019-02-18T18:42:05.707Z,4.40
2019-02-18T18:44:38.373Z,4.50
2019-02-18T18:47:10.429Z,4.50
2019-02-18T18:49:41.835Z,4.50
2019-02-18T18:52:14.084Z,4.50
2019-02-18T18:54:46.609Z,4.50
2019-02-18T18:57:20.443Z,4.50
2019-02-18T18:59:55.173Z,4.40
2019-02-18T19:02:25.997Z,4.40
2019-02-18T19:04:57.952Z,4.50
2019-02-18T19:07:28.831Z,4.50
2019-02-18T19:10:01.665Z,4.50
2019-02-18T19:12:34.216Z,4.60
2019-02-18T19:15:06.828Z,4.60
2019-02-18T19:17:39.408Z,4.50
2019-02-18T19:20:11.780Z,4.60
2019-02-18T19:22:45.757Z,4.60
2019-02-18T19:25:17.645Z,4.50
2019-02-18T19:27:49.100Z,4.50
2019-02-18T19:30:19.855Z,4.60
2019-02-18T19:32:49.193Z,4.50
2019-02-18T19:35:20.040Z,4.60
2019-02-18T19:37:52.473Z,4.60
2019-02-18T19:40:25.881Z,4.60
2019-02-18T19:42:57.835Z,4.70
2019-02-18T19:45:28.906Z,4.70
2019-02-18T19:48:02.921Z,4.70
2019-02-18T19:50:34.287Z,4.70
2019-02-18T19:53:04.753Z,4.70
2019-02-18T19:55:37.198Z,4.70
2019-02-18T19:58:08.850Z,4.70
2019-02-18T20:00:39.206Z,4.70
2019-02-18T20:03:12.590Z,4.70
2019-02-18T20:05:43.576Z,4.80
2019-02-18T20:08:15.952Z,4.80
2019-02-18T20:10:46.396Z,4.80
2019-02-18T20:13:22.363Z,4.80
2019-02-18T20:15:54.693Z,4.80
2019-02-18T20:18:26.010Z,4.80
2019-02-18T20:20:57.289Z,4.80
2019-02-18T20:23:27.366Z,4.80
2019-02-18T20:25:56.848Z,4.80
2019-02-18T20:28:26.969Z,4.70
2019-02-18T20:30:58.536Z,4.80
2019-02-18T20:33:31.509Z,4.80
2019-02-18T20:36:03.113Z,4.80
2019-02-18T20:38:36.207Z,4.90
2019-02-18T20:41:08.912Z,4.90
2019-02-18T20:43:41.433Z,4.90
2019-02-18T20:46:13.769Z,4.90
2019-02-18T20:48:46.218Z,4.80
2019-02-18T20:51:17.297Z,4.90
2019-02-18T20:53:49.085Z,4.90
2019-02-18T20:56:20.353Z,4.90
2019-02-18T20:58:50.301Z,4.90
2019-02-18T21:01:20.957Z,4.90
2019-02-18T21:03:52.106Z,4.90
2019-02-18T21:06:25.225Z,4.80
2019-02-18T21:08:56.686Z,4.80
2019-02-18T21:11:27.210Z,4.80
2019-02-18T21:13:57.133Z,4.80
2019-02-18T21:16:28.565Z,4.80
2019-02-18T21:18:59.548Z,4.80
2019-02-18T21:21:29.993Z,4.70
2019-02-18T21:24:02.312Z,4.70
2019-02-18T21:26:36.209Z,4.70
2019-02-18T21:29:07.188Z,4.80
2019-02-18T21:31:38.197Z,4.80
2019-02-18T21:34:09.228Z,4.80
2019-02-18T21:36:43.210Z,4.70
2019-02-18T21:39:17.689Z,4.70
2019-02-18T21:41:50.098Z,4.80
2019-02-18T21:44:25.412Z,4.80
2019-02-18T21:46:56.619Z,4.90
2019-02-18T21:49:29.899Z,4.80
2019-02-18T21:52:00.149Z,4.80
2019-02-18T21:54:30.264Z,4.80
2019-02-18T21:57:03.600Z,4.80
2019-02-18T21:59:36.303Z,4.80
2019-02-18T22:02:06.565Z,4.70
2019-02-18T22:04:38.010Z,4.80
2019-02-18T22:07:10.471Z,4.80
2019-02-18T22:09:41.385Z,4.80
2019-02-18T22:12:13.425Z,4.80
2019-02-18T22:14:45.270Z,4.80
2019-02-18T22:17:16.990Z,4.80
2019-02-18T22:19:50.480Z,4.80
2019-02-18T22:22:22.792Z,4.90
2019-02-18T22:24:54.500Z,4.90
2019-02-18T22:27:26.410Z,4.80
2019-02-18T22:29:56.709Z,4.80
2019-02-18T22:32:30.281Z,4.80
2019-02-18T22:35:00.929Z,4.80
2019-02-18T22:37:33.350Z,4.80
2019-02-18T22:40:05.257Z,4.80
2019-02-18T22:42:36.737Z,4.80
2019-02-18T22:45:10.371Z,4.90
2019-02-18T22:47:43.920Z,4.90
2019-02-18T22:50:15.665Z,4.90
2019-02-18T22:52:46.626Z,4.90
2019-02-18T22:55:16.815Z,4.90
2019-02-18T22:57:49.420Z,4.90
2019-02-18T23:00:25.301Z,5.00
2019-02-18T23:02:56.811Z,5.00
2019-02-18T23:05:28.859Z,4.90
2019-02-18T23:07:59.307Z,4.90
2019-02-18T23:10:29.517Z,4.90
2019-02-18T23:13:01.612Z,4.90
2019-02-18T23:15:30.689Z,4.80
2019-02-18T23:18:13.967Z,4.80
2019-02-18T23:20:46.509Z,4.80
2019-02-18T23:23:17.517Z,4.70
2019-02-18T23:25:47.927Z,4.70
2019-02-18T23:28:19.371Z,4.70
2019-02-18T23:30:50.710Z,4.70
2019-02-18T23:33:22.298Z,4.70
2019-02-18T23:35:56.604Z,4.70
2019-02-18T23:38:27.703Z,4.80
2019-02-18T23:40:58.637Z,4.70
2019-02-18T23:43:30.000Z,4.80
2019-02-18T23:46:02.261Z,4.70
2019-02-18T23:48:35.335Z,4.70
2019-02-18T23:51:08.393Z,4.80
2019-02-18T23:53:39.510Z,4.70
2019-02-18T23:56:12.840Z,4.80
2019-02-18T23:58:44.179Z,4.80
